createdAt,value
2019-02-25T00:00:31.781Z,100470.98
2019-02-25T00:03:06.376Z,100468.84
2019-02-25T00:05:37.902Z,100474.98
2019-02-25T00:08:10.615Z,100474.94
2019-02-25T00:10:43.315Z,100473.25
2019-02-25T00:13:16.056Z,100475.98
2019-02-25T00:15:48.783Z,100462.98
2019-02-25T00:18:21.978Z,100463.36
2019-02-25T00:20:54.957Z,100472.16
2019-02-25T00:23:27.770Z,100469.67
2019-02-25T00:26:00.560Z,100467.84
2019-02-25T00:28:34.104Z,100471.42
2019-02-25T00:31:06.553Z,100477.04
2019-02-25T00:33:39.982Z,100477.12
2019-02-25T00:36:13.323Z,100479.83
2019-02-25T00:38:46.667Z,100484.78
2019-02-25T00:41:19.302Z,100482.55
2019-02-25T00:43:51.814Z,100486.88
2019-02-25T00:46:27.487Z,100488.30
2019-02-25T00:49:00.795Z,100493.52
2019-02-25T00:51:33.848Z,100492.69
2019-02-25T00:54:05.943Z,100500.98
2019-02-25T00:56:39.008Z,100507.56
2019-02-25T00:59:11.940Z,100502.44
2019-02-25T01:01:44.335Z,100509.84
2019-02-25T01:04:17.116Z,100509.99
2019-02-25T01:06:52.120Z,100513.05
2019-02-25T01:09:25.651Z,100523.46
2019-02-25T01:12:00.169Z,100524.36
2019-02-25T01:14:33.079Z,100520.02
2019-02-25T01:17:06.271Z,100512.63
2019-02-25T01:19:37.924Z,100521.72
2019-02-25T01:22:12.835Z,100519.14
2019-02-25T01:24:45.313Z,100518.23
2019-02-25T01:27:17.697Z,100508.67
2019-02-25T01:29:50.472Z,100513.89
2019-02-25T01:32:23.989Z,100514.08
2019-02-25T01:34:56.465Z,100522.41
2019-02-25T01:37:29.946Z,100523.72
2019-02-25T01:40:03.718Z,100519.75
2019-02-25T01:42:40.358Z,100520.20
2019-02-25T01:45:13.613Z,100519.73
2019-02-25T01:47:47.937Z,100516.27
2019-02-25T01:50:20.626Z,100507.95
2019-02-25T01:52:53.539Z,100506.21
2019-02-25T01:55:26.373Z,100509.32
2019-02-25T01:58:00.290Z,100496.80
2019-02-25T02:00:34.419Z,100499.39
2019-02-25T02:03:07.034Z,100487.28
2019-02-25T02:05:40.622Z,100487.23
2019-02-25T02:08:13.440Z,100476.06
2019-02-25T02:10:46.586Z,100479.52
2019-02-25T02:13:19.084Z,100478.66
2019-02-25T02:15:51.922Z,100489.95
2019-02-25T02:18:27.721Z,100492.58
2019-02-25T02:21:02.706Z,100491.28
2019-02-25T02:23:34.586Z,100491.66
2019-02-25T02:26:08.213Z,100483.44
2019-02-25T02:28:40.871Z,100488.22
2019-02-25T02:31:13.407Z,100494.86
2019-02-25T02:33:46.079Z,100497.02
2019-02-25T02:36:19.240Z,100489.77
2019-02-25T02:38:51.954Z,100498.87
2019-02-25T02:41:25.569Z,100493.41
2019-02-25T02:44:00.026Z,100486.55
2019-02-25T02:47:22.320Z,100491.82
2019-02-25T02:49:54.818Z,100471.98
2019-02-25T02:52:29.455Z,100477.94
2019-02-25T02:55:01.588Z,100475.81
2019-02-25T02:57:34.172Z,100471.08
2019-02-25T03:00:12.110Z,100471.93
2019-02-25T03:02:44.510Z,100473.84
2019-02-25T03:05:20.743Z,100477.42
2019-02-25T03:07:54.047Z,100475.55
2019-02-25T03:10:30.200Z,100465.98
2019-02-25T03:13:02.647Z,100458.54
2019-02-25T03:15:38.139Z,100466.45
2019-02-25T03:18:11.467Z,100459.94
2019-02-25T03:20:43.948Z,100463.39
2019-02-25T03:23:17.900Z,100465.61
2019-02-25T03:25:51.516Z,100475.62
2019-02-25T03:28:24.773Z,100471.23
2019-02-25T03:30:57.239Z,100466.09
2019-02-25T03:33:30.353Z,100468.77
2019-02-25T03:36:03.770Z,100471.47
2019-02-25T03:38:38.290Z,100477.45
2019-02-25T03:41:11.108Z,100473.14
2019-02-25T03:43:44.239Z,100474.02
2019-02-25T03:46:18.486Z,100472.22
2019-02-25T03:48:51.584Z,100467.47
2019-02-25T03:51:24.051Z,100470.95
2019-02-25T03:53:56.841Z,100468.84
2019-02-25T03:56:29.699Z,100473.62
2019-02-25T03:59:03.419Z,100471.91
2019-02-25T04:01:35.788Z,100473.70
2019-02-25T04:04:08.453Z,100467.17
2019-02-25T04:06:42.783Z,100475.36
2019-02-25T04:09:16.714Z,100478.06
2019-02-25T04:11:50.698Z,100476.73
2019-02-25T04:14:23.591Z,100479.31
2019-02-25T04:16:58.003Z,100480.69
2019-02-25T04:19:31.488Z,100477.23
2019-02-25T04:22:03.589Z,100482.85
2019-02-25T04:24:35.683Z,100481.60
2019-02-25T04:27:09.543Z,100489.41
2019-02-25T04:29:42.506Z,100488.09
2019-02-25T04:32:17.019Z,100482.39
2019-02-25T04:34:49.530Z,100481.86
2019-02-25T04:37:26.009Z,100485.84
2019-02-25T04:39:58.466Z,100488.76
2019-02-25T04:42:31.194Z,100499.30
2019-02-25T04:45:04.308Z,100509.80
2019-02-25T04:47:38.723Z,100504.64
2019-02-25T04:50:12.638Z,100502.02
2019-02-25T04:52:46.386Z,100504.60
2019-02-25T04:55:18.608Z,100507.22
2019-02-25T04:57:51.563Z,100505.53
2019-02-25T05:00:23.962Z,100512.47
2019-02-25T05:02:57.128Z,100510.27
2019-02-25T05:05:31.283Z,100505.04
2019-02-25T05:08:04.239Z,100502.47
2019-02-25T05:10:38.928Z,100499.48
2019-02-25T05:13:11.715Z,100494.23
2019-02-25T05:15:45.257Z,100482.13
2019-02-25T05:18:18.653Z,100479.12
2019-02-25T05:20:51.287Z,100469.14
2019-02-25T05:23:24.012Z,100469.09
2019-02-25T05:25:57.486Z,100467.86
2019-02-25T05:28:31.735Z,100475.30
2019-02-25T05:31:04.503Z,100472.73
2019-02-25T05:33:37.148Z,100468.73
2019-02-25T05:36:10.301Z,100473.54
2019-02-25T05:38:44.139Z,100472.28
2019-02-25T05:41:16.917Z,100474.44
2019-02-25T05:43:49.584Z,100467.54
2019-02-25T05:46:22.392Z,100464.95
2019-02-25T05:48:56.697Z,100462.78
2019-02-25T05:51:29.274Z,100470.63
2019-02-25T05:54:02.039Z,100464.11
2019-02-25T05:56:34.672Z,100462.33
2019-02-25T05:59:08.992Z,100471.03
2019-02-25T06:01:41.132Z,100479.27
2019-02-25T06:04:14.144Z,100484.45
2019-02-25T06:06:46.911Z,100480.13
2019-02-25T06:09:21.622Z,100484.49
2019-02-25T06:11:55.400Z,100487.92
2019-02-25T06:14:29.679Z,100480.95
2019-02-25T06:17:06.802Z,100482.24
2019-02-25T06:19:39.310Z,100489.29
2019-02-25T06:22:12.368Z,100496.99
2019-02-25T06:24:44.790Z,100502.25
2019-02-25T06:27:18.696Z,100506.95
2019-02-25T06:29:51.843Z,100506.52
2019-02-25T06:32:40.952Z,100500.40
2019-02-25T06:35:16.467Z,100499.05
2019-02-25T06:37:52.364Z,100507.22
2019-02-25T06:40:27.802Z,100504.66
2019-02-25T06:43:05.852Z,100508.12
2019-02-25T06:45:37.568Z,100493.06
2019-02-25T06:48:11.868Z,100504.71
2019-02-25T06:50:44.449Z,100508.07
2019-02-25T06:53:18.326Z,100501.19
2019-02-25T06:55:51.328Z,100499.03
2019-02-25T06:58:23.144Z,100500.99
2019-02-25T07:00:55.708Z,100504.32
2019-02-25T07:03:29.160Z,100500.26
2019-02-25T07:06:29.943Z,100492.36
2019-02-25T07:09:29.756Z,100495.43
2019-02-25T07:12:27.870Z,100497.57
2019-02-25T07:15:18.834Z,100496.53
2019-02-25T07:18:09.404Z,100498.78
2019-02-25T07:21:00.399Z,100495.41
2019-02-25T07:23:51.505Z,100497.14
2019-02-25T07:26:42.541Z,100495.40
2019-02-25T07:29:33.815Z,100500.28
2019-02-25T07:32:31.692Z,100499.05
2019-02-25T07:35:16.459Z,100502.36
2019-02-25T07:37:56.487Z,100495.64
2019-02-25T07:40:49.241Z,100498.30
2019-02-25T07:43:56.704Z,100502.40
2019-02-25T07:46:47.173Z,100504.62
2019-02-25T07:49:33.529Z,100517.80
2019-02-25T07:52:25.361Z,100507.79
2019-02-25T07:55:21.160Z,100503.95
2019-02-25T07:58:14.829Z,100511.32
2019-02-25T08:01:23.370Z,100512.08
2019-02-25T08:04:15.257Z,100502.98
2019-02-25T08:07:02.123Z,100506.49
2019-02-25T08:09:40.216Z,100505.11
2019-02-25T08:12:46.140Z,100493.27
2019-02-25T08:15:31.026Z,100491.42
2019-02-25T08:18:21.039Z,100496.08
2019-02-25T08:21:14.210Z,100498.39
2019-02-25T08:24:04.618Z,100496.08
2019-02-25T08:26:49.474Z,100486.56
2019-02-25T08:29:43.434Z,100489.55
2019-02-25T08:32:25.832Z,100488.24
2019-02-25T08:35:16.669Z,100482.66
2019-02-25T08:38:14.162Z,100474.34
2019-02-25T08:41:36.966Z,100477.70
2019-02-25T08:44:38.623Z,100484.38
2019-02-25T08:47:22.877Z,100488.36
2019-02-25T08:50:00.774Z,100498.05
2019-02-25T08:52:35.089Z,100500.12
2019-02-25T08:55:09.020Z,100501.73
2019-02-25T08:57:42.820Z,100503.23
2019-02-25T09:00:19.145Z,100499.56
2019-02-25T09:02:54.013Z,100497.66
2019-02-25T09:05:27.836Z,100500.24
2019-02-25T09:08:02.031Z,100493.09
2019-02-25T09:10:34.993Z,100495.19
2019-02-25T09:13:08.717Z,100501.94
2019-02-25T09:15:42.017Z,100501.99
2019-02-25T09:18:14.404Z,100499.17
2019-02-25T09:20:47.832Z,100497.91
2019-02-25T09:23:22.009Z,100494.25
2019-02-25T09:26:00.493Z,100487.55
2019-02-25T09:28:38.372Z,100485.39
2019-02-25T09:31:16.209Z,100482.88
2019-02-25T09:33:51.918Z,100480.89
2019-02-25T09:36:25.685Z,100476.32
2019-02-25T09:38:58.636Z,100478.02
2019-02-25T09:41:31.640Z,100481.48
2019-02-25T09:44:04.276Z,100480.75
2019-02-25T09:46:37.607Z,100477.80
2019-02-25T09:49:11.004Z,100489.52
2019-02-25T09:51:44.370Z,100481.56
2019-02-25T09:54:15.691Z,100484.64
2019-02-25T09:56:48.780Z,100483.61
2019-02-25T09:59:26.682Z,100470.48
2019-02-25T10:02:03.519Z,100480.40
2019-02-25T10:04:36.499Z,100477.67
2019-02-25T10:07:11.073Z,100473.05
2019-02-25T10:09:44.197Z,100474.27
2019-02-25T10:12:17.248Z,100469.68
2019-02-25T10:14:50.464Z,100456.67
2019-02-25T10:17:24.000Z,100464.03
2019-02-25T10:19:56.178Z,100461.20
2019-02-25T10:22:33.542Z,100456.88
2019-02-25T10:25:07.077Z,100446.95
2019-02-25T10:27:41.835Z,100441.95
2019-02-25T10:30:15.170Z,100445.37
2019-02-25T10:32:49.085Z,100441.02
2019-02-25T10:35:22.415Z,100443.75
2019-02-25T10:37:54.461Z,100442.06
2019-02-25T10:40:27.807Z,100446.59
2019-02-25T10:43:01.386Z,100449.59
2019-02-25T10:45:34.493Z,100438.64
2019-02-25T10:48:08.757Z,100441.09
2019-02-25T10:50:45.926Z,100447.09
2019-02-25T10:53:20.280Z,100438.61
2019-02-25T10:56:19.279Z,100433.44
2019-02-25T10:58:53.708Z,100433.34
2019-02-25T11:01:26.665Z,100434.52
2019-02-25T11:04:01.162Z,100438.04
2019-02-25T11:06:35.993Z,100434.26
2019-02-25T11:09:36.391Z,100439.05
2019-02-25T11:12:09.966Z,100437.31
2019-02-25T11:14:43.476Z,100433.13
2019-02-25T11:17:16.142Z,100434.66
2019-02-25T11:19:49.196Z,100430.22
2019-02-25T11:22:21.945Z,100423.79
2019-02-25T11:24:55.553Z,100425.27
2019-02-25T11:27:31.304Z,100417.73
2019-02-25T11:30:07.365Z,100413.02
2019-02-25T11:32:41.155Z,100413.53
2019-02-25T11:35:15.386Z,100405.77
2019-02-25T11:37:54.217Z,100395.41
2019-02-25T11:40:28.955Z,100393.17
2019-02-25T11:43:03.426Z,100379.98
2019-02-25T11:45:38.041Z,100373.25
2019-02-25T11:48:11.998Z,100370.83
2019-02-25T11:50:45.050Z,100363.37
2019-02-25T11:53:20.134Z,100360.39
2019-02-25T11:55:53.897Z,100355.79
2019-02-25T11:58:27.057Z,100355.92
2019-02-25T12:01:04.558Z,100352.50
2019-02-25T12:03:38.705Z,100351.30
2019-02-25T12:06:11.454Z,100348.59
2019-02-25T12:08:44.275Z,100344.91
2019-02-25T12:11:17.488Z,100347.00
2019-02-25T12:13:50.505Z,100338.98
2019-02-25T12:16:21.862Z,100339.70
2019-02-25T12:18:55.046Z,100347.03
2019-02-25T12:21:27.816Z,100342.00
2019-02-25T12:24:01.431Z,100340.59
2019-02-25T12:26:35.470Z,100343.34
2019-02-25T12:29:11.023Z,100335.13
2019-02-25T12:31:44.904Z,100330.03
2019-02-25T12:34:18.595Z,100319.88
2019-02-25T12:36:51.735Z,100316.70
2019-02-25T12:40:31.708Z,100320.09
2019-02-25T12:43:26.416Z,100316.41
2019-02-25T12:46:00.229Z,100315.28
2019-02-25T12:48:35.425Z,100311.86
2019-02-25T12:51:10.594Z,100299.15
2019-02-25T12:53:44.035Z,100286.70
2019-02-25T12:56:19.549Z,100284.91
2019-02-25T12:58:54.926Z,100272.77
2019-02-25T13:01:30.252Z,100265.59
2019-02-25T13:04:03.444Z,100260.67
2019-02-25T13:06:36.836Z,100261.45
2019-02-25T13:09:15.253Z,100255.40
2019-02-25T13:11:48.887Z,100254.41
2019-02-25T13:14:23.646Z,100249.98
2019-02-25T13:16:57.170Z,100251.98
2019-02-25T13:19:32.535Z,100243.41
2019-02-25T13:22:05.899Z,100233.64
2019-02-25T13:24:40.545Z,100227.55
2019-02-25T13:27:13.879Z,100229.98
2019-02-25T13:29:49.714Z,100225.45
2019-02-25T13:32:23.708Z,100213.14
2019-02-25T13:34:56.349Z,100211.23
2019-02-25T13:37:30.619Z,100205.41
2019-02-25T13:40:04.844Z,100192.25
2019-02-25T13:42:44.846Z,100183.41
2019-02-25T13:45:21.162Z,100179.07
2019-02-25T13:47:58.080Z,100183.94
2019-02-25T13:50:30.180Z,100167.75
2019-02-25T13:53:03.773Z,100164.38
2019-02-25T13:55:37.457Z,100162.20
2019-02-25T13:58:09.850Z,100165.35
2019-02-25T14:00:43.083Z,100163.22
2019-02-25T14:03:16.697Z,100158.66
2019-02-25T14:05:51.784Z,100158.14
2019-02-25T14:08:25.511Z,100148.72
2019-02-25T14:10:58.324Z,100152.23
2019-02-25T14:13:32.009Z,100153.97
2019-02-25T14:16:05.377Z,100155.52
2019-02-25T14:18:37.788Z,100150.36
2019-02-25T14:21:10.949Z,100146.20
2019-02-25T14:23:45.474Z,100145.98
2019-02-25T14:26:19.103Z,100152.25
2019-02-25T14:28:52.811Z,100153.84
2019-02-25T14:31:29.938Z,100146.34
2019-02-25T14:34:04.206Z,100143.78
2019-02-25T14:36:36.329Z,100138.92
2019-02-25T14:39:25.272Z,100138.29
2019-02-25T14:41:59.159Z,100143.93
2019-02-25T14:44:35.374Z,100143.38
2019-02-25T14:47:19.773Z,100136.95
2019-02-25T14:49:42.948Z,100136.70
2019-02-25T14:52:19.301Z,100133.06
2019-02-25T14:54:55.265Z,100132.09
2019-02-25T14:57:30.850Z,100127.12
2019-02-25T15:00:04.424Z,100126.33
2019-02-25T15:02:38.989Z,100125.83
2019-02-25T15:05:13.046Z,100134.70
2019-02-25T15:07:46.738Z,100135.20
2019-02-25T15:10:26.565Z,100123.70
2019-02-25T15:13:01.548Z,100115.44
2019-02-25T15:15:34.829Z,100117.48
2019-02-25T15:18:08.635Z,100110.18
2019-02-25T15:20:42.090Z,100110.20
2019-02-25T15:23:17.214Z,100110.80
2019-02-25T15:25:50.886Z,100108.95
2019-02-25T15:28:24.858Z,100102.92
2019-02-25T15:31:02.140Z,100103.93
2019-02-25T15:33:35.475Z,100109.25
2019-02-25T15:36:11.487Z,100107.61
2019-02-25T15:38:43.942Z,100116.41
2019-02-25T15:41:16.868Z,100112.33
2019-02-25T15:43:57.977Z,100108.58
2019-02-25T15:46:29.820Z,100112.00
2019-02-25T15:49:01.623Z,100113.88
2019-02-25T15:51:37.083Z,100108.53
2019-02-25T15:54:11.258Z,100112.28
2019-02-25T15:56:46.164Z,100116.48
2019-02-25T15:59:20.649Z,100114.77
2019-02-25T16:01:55.283Z,100121.59
2019-02-25T16:04:31.828Z,100122.47
2019-02-25T16:07:06.602Z,100124.25
2019-02-25T16:09:40.796Z,100125.58
2019-02-25T16:12:15.694Z,100125.00
2019-02-25T16:14:50.945Z,100128.25
2019-02-25T16:17:25.020Z,100127.39
2019-02-25T16:19:58.566Z,100127.12
2019-02-25T16:22:34.577Z,100126.34
2019-02-25T16:25:14.120Z,100133.50
2019-02-25T16:27:49.872Z,100134.78
2019-02-25T16:30:23.580Z,100134.18
2019-02-25T16:32:59.670Z,100138.32
2019-02-25T16:35:34.331Z,100139.36
2019-02-25T16:38:08.210Z,100145.87
2019-02-25T16:40:42.417Z,100153.80
2019-02-25T16:43:19.091Z,100157.33
2019-02-25T16:45:52.579Z,100158.44
2019-02-25T16:48:27.728Z,100151.08
2019-02-25T16:51:02.552Z,100156.28
2019-02-25T16:53:39.057Z,100152.01
2019-02-25T16:56:14.160Z,100149.53
2019-02-25T16:58:49.858Z,100147.62
2019-02-25T17:01:25.913Z,100155.63
2019-02-25T17:03:59.679Z,100157.31
2019-02-25T17:06:34.279Z,100158.58
2019-02-25T17:09:11.782Z,100161.39
2019-02-25T17:11:46.049Z,100162.28
2019-02-25T17:14:21.671Z,100165.58
2019-02-25T17:16:57.022Z,100167.92
2019-02-25T17:19:35.786Z,100166.75
2019-02-25T17:22:22.157Z,100168.55
2019-02-25T17:25:09.646Z,100174.65
2019-02-25T17:27:47.935Z,100173.79
2019-02-25T17:30:22.029Z,100175.12
2019-02-25T17:32:56.024Z,100176.98
2019-02-25T17:35:33.092Z,100171.16
2019-02-25T17:38:07.235Z,100174.80
2019-02-25T17:40:39.920Z,100168.73
2019-02-25T17:43:13.994Z,100161.89
2019-02-25T17:45:48.023Z,100163.72
2019-02-25T17:48:21.217Z,100165.30
2019-02-25T17:50:55.120Z,100171.05
2019-02-25T17:53:31.071Z,100168.04
2019-02-25T17:56:04.996Z,100172.56
2019-02-25T17:58:42.318Z,100175.77
2019-02-25T18:01:17.019Z,100180.37
2019-02-25T18:03:52.248Z,100184.06
2019-02-25T18:06:30.121Z,100176.73
2019-02-25T18:09:04.944Z,100175.16
2019-02-25T18:11:43.290Z,100188.09
2019-02-25T18:14:19.873Z,100186.66
2019-02-25T18:16:53.980Z,100176.72
2019-02-25T18:19:31.486Z,100180.48
2019-02-25T18:22:17.968Z,100176.45
2019-02-25T18:24:50.257Z,100181.35
2019-02-25T18:27:24.655Z,100177.34
2019-02-25T18:30:16.209Z,100192.72
2019-02-25T18:32:53.537Z,100190.03
2019-02-25T18:35:30.538Z,100181.49
2019-02-25T18:38:07.240Z,100175.22
2019-02-25T18:40:46.230Z,100179.75
2019-02-25T18:43:21.623Z,100178.80
2019-02-25T18:45:56.268Z,100185.08
2019-02-25T18:48:31.037Z,100187.42
2019-02-25T18:51:05.105Z,100188.97
2019-02-25T18:53:42.193Z,100182.95
2019-02-25T18:56:16.857Z,100191.70
2019-02-25T18:58:53.746Z,100193.72
2019-02-25T19:01:28.386Z,100195.42
2019-02-25T19:04:05.897Z,100198.81
2019-02-25T19:06:41.880Z,100201.14
2019-02-25T19:09:31.215Z,100192.38
2019-02-25T19:12:06.268Z,100192.73
2019-02-25T19:14:39.330Z,100203.57
2019-02-25T19:17:12.633Z,100206.12
2019-02-25T19:19:46.979Z,100212.99
2019-02-25T19:22:23.488Z,100216.03
2019-02-25T19:24:57.799Z,100212.15
2019-02-25T19:27:33.636Z,100209.38
2019-02-25T19:30:08.250Z,100200.77
2019-02-25T19:32:43.145Z,100205.30
2019-02-25T19:35:17.375Z,100207.59
2019-02-25T19:37:52.079Z,100213.86
2019-02-25T19:40:25.934Z,100213.20
2019-02-25T19:43:06.039Z,100211.78
2019-02-25T19:45:40.899Z,100212.89
2019-02-25T19:48:19.263Z,100212.67
2019-02-25T19:50:54.486Z,100214.27
2019-02-25T19:53:31.469Z,100209.27
2019-02-25T19:56:04.080Z,100196.53
2019-02-25T19:58:43.685Z,100204.58
2019-02-25T20:01:19.434Z,100202.94
2019-02-25T20:03:52.111Z,100203.33
2019-02-25T20:06:26.261Z,100205.77
2019-02-25T20:09:21.694Z,100206.03
2019-02-25T20:11:54.814Z,100205.27
2019-02-25T20:14:25.828Z,100200.91
2019-02-25T20:16:59.326Z,100204.72
2019-02-25T20:19:32.814Z,100213.50
2019-02-25T20:22:07.868Z,100212.92
2019-02-25T20:24:46.041Z,100215.05
2019-02-25T20:27:19.279Z,100212.53
2019-02-25T20:29:52.036Z,100210.27
2019-02-25T20:32:25.133Z,100203.41
2019-02-25T20:34:59.334Z,100202.34
2019-02-25T20:37:33.991Z,100205.95
2019-02-25T20:40:09.255Z,100204.05
2019-02-25T20:42:46.749Z,100205.06
2019-02-25T20:45:23.649Z,100201.23
2019-02-25T20:47:57.274Z,100200.00
2019-02-25T20:50:31.631Z,100199.73
2019-02-25T20:53:09.202Z,100197.71
2019-02-25T20:55:44.331Z,100198.75
2019-02-25T20:58:18.800Z,100199.04
2019-02-25T21:00:52.941Z,100191.35
2019-02-25T21:03:27.689Z,100193.92
2019-02-25T21:06:07.775Z,100190.38
2019-02-25T21:08:44.580Z,100198.41
2019-02-25T21:11:20.624Z,100208.67
2019-02-25T21:13:58.696Z,100204.19
2019-02-25T21:16:34.598Z,100208.95
2019-02-25T21:19:10.167Z,100202.34
2019-02-25T21:21:43.287Z,100201.03
2019-02-25T21:24:16.828Z,100210.13
2019-02-25T21:26:55.229Z,100219.67
2019-02-25T21:29:31.758Z,100215.56
2019-02-25T21:32:05.670Z,100218.13
2019-02-25T21:34:38.369Z,100216.11
2019-02-25T21:37:13.385Z,100215.48
2019-02-25T21:39:46.039Z,100224.41
2019-02-25T21:42:21.800Z,100223.45
2019-02-25T21:44:57.034Z,100227.09
2019-02-25T21:47:32.824Z,100228.41
2019-02-25T21:50:07.421Z,100229.44
2019-02-25T21:52:43.550Z,100231.32
2019-02-25T21:55:18.256Z,100219.98
2019-02-25T21:57:54.929Z,100219.11
2019-02-25T22:00:31.965Z,100223.75
2019-02-25T22:03:08.220Z,100223.55
2019-02-25T22:05:40.323Z,100220.51
2019-02-25T22:08:13.661Z,100220.98
2019-02-25T22:10:47.526Z,100218.31
2019-02-25T22:13:20.863Z,100225.78
2019-02-25T22:15:53.812Z,100221.90
2019-02-25T22:18:29.850Z,100225.64
2019-02-25T22:21:07.139Z,100226.16
2019-02-25T22:23:38.577Z,100220.61
2019-02-25T22:26:10.268Z,100220.83
2019-02-25T22:28:44.208Z,100221.02
2019-02-25T22:31:19.098Z,100217.33
2019-02-25T22:33:52.002Z,100216.36
2019-02-25T22:36:25.918Z,100213.45
2019-02-25T22:39:03.459Z,100212.63
2019-02-25T22:41:36.549Z,100209.80
2019-02-25T22:44:10.608Z,100210.16
2019-02-25T22:46:44.195Z,100214.97
2019-02-25T22:49:18.425Z,100210.31
2019-02-25T22:51:51.914Z,100205.38
2019-02-25T22:54:27.771Z,100206.81
2019-02-25T22:57:00.641Z,100209.09
2019-02-25T22:59:35.115Z,100211.53
2019-02-25T23:02:08.771Z,100214.27
2019-02-25T23:04:44.859Z,100214.49
2019-02-25T23:07:20.532Z,100221.72
2019-02-25T23:09:54.484Z,100224.45
2019-02-25T23:12:29.434Z,100222.84
2019-02-25T23:15:03.851Z,100225.11
2019-02-25T23:17:37.526Z,100222.37
2019-02-25T23:20:11.248Z,100222.92
2019-02-25T23:22:46.117Z,100230.58
2019-02-25T23:25:18.889Z,100228.92
2019-02-25T23:27:53.504Z,100228.97
2019-02-25T23:30:26.915Z,100231.30
2019-02-25T23:33:00.877Z,100227.02
2019-02-25T23:35:33.738Z,100231.38
2019-02-25T23:38:06.536Z,100222.88
2019-02-25T23:40:40.266Z,100215.99
2019-02-25T23:43:16.692Z,100212.83
2019-02-25T23:45:49.465Z,100214.20
2019-02-25T23:48:26.430Z,100207.16
2019-02-25T23:51:00.673Z,100205.23
2019-02-25T23:53:35.130Z,100200.44
2019-02-25T23:56:07.278Z,100197.39
2019-02-25T23:58:42.377Z,100191.77
